createdAt,value
2023-03-22T00:00:59.268Z,4.10
2023-03-22T00:05:31.067Z,3.90
2023-03-22T00:09:54.913Z,3.10
2023-03-22T00:14:18.887Z,3.70
2023-03-22T00:18:49.012Z,4.00
2023-03-22T00:23:12.872Z,4.00
2023-03-22T00:27:42.030Z,3.40
2023-03-22T00:32:11.718Z,4.40
2023-03-22T00:36:35.682Z,4.30
2023-03-22T00:41:00.604Z,4.80
2023-03-22T00:45:26.600Z,5.70
2023-03-22T00:49:56.202Z,4.70
2023-03-22T00:54:20.214Z,5.70
2023-03-22T00:58:45.223Z,5.10
2023-03-22T01:03:09.340Z,4.80
2023-03-22T01:07:33.332Z,5.10
2023-03-22T01:11:56.274Z,5.00
2023-03-22T01:16:20.199Z,17.70
2023-03-22T01:20:44.229Z,5.50
2023-03-22T01:25:01.470Z,5.60
2023-03-22T01:29:25.305Z,4.00
2023-03-22T01:33:49.227Z,6.50
2023-03-22T01:38:13.131Z,8.20
2023-03-22T01:42:36.737Z,5.10
2023-03-22T01:47:02.721Z,4.30
2023-03-22T01:51:26.627Z,4.30
2023-03-22T01:55:51.829Z,4.10
2023-03-22T02:00:17.763Z,4.80
2023-03-22T02:04:59.996Z,4.10
2023-03-22T02:09:17.039Z,4.30
2023-03-22T02:13:56.011Z,4.20
2023-03-22T02:18:40.803Z,4.90
2023-03-22T02:22:53.865Z,4.70
2023-03-22T02:27:54.332Z,5.00
2023-03-22T02:32:24.995Z,4.60
2023-03-22T02:36:52.095Z,4.70
2023-03-22T02:41:16.127Z,5.10
2023-03-22T02:45:53.987Z,4.60
2023-03-22T02:50:23.568Z,4.30
2023-03-22T02:55:01.516Z,4.40
2023-03-22T02:59:27.854Z,4.40
2023-03-22T03:03:51.785Z,4.60
2023-03-22T03:08:15.727Z,4.10
2023-03-22T03:12:39.606Z,4.40
2023-03-22T03:16:58.151Z,5.00
2023-03-22T03:21:24.819Z,5.00
2023-03-22T03:25:50.053Z,4.60
2023-03-22T03:30:38.807Z,4.00
2023-03-22T03:35:14.759Z,4.20
2023-03-22T03:39:20.295Z,4.90
2023-03-22T03:43:47.251Z,5.30
2023-03-22T03:48:18.511Z,5.40
2023-03-22T03:52:48.452Z,5.80
2023-03-22T03:57:12.370Z,4.60
2023-03-22T04:01:47.644Z,5.10
2023-03-22T04:06:13.126Z,6.20
2023-03-22T04:10:38.186Z,6.30
2023-03-22T04:15:06.296Z,5.70
2023-03-22T04:19:37.360Z,5.90
2023-03-22T04:24:00.649Z,6.10
2023-03-22T04:28:25.652Z,6.50
2023-03-22T04:32:50.532Z,5.80
2023-03-22T04:37:28.389Z,5.70
2023-03-22T04:41:53.352Z,5.30
2023-03-22T04:46:20.425Z,5.60
2023-03-22T04:50:44.773Z,5.50
2023-03-22T04:55:10.628Z,5.40
2023-03-22T04:59:36.600Z,5.60
2023-03-22T05:04:00.566Z,6.80
2023-03-22T05:08:29.651Z,6.40
2023-03-22T05:12:53.575Z,8.70
2023-03-22T05:17:23.648Z,15.30
2023-03-22T05:21:48.608Z,21.20
2023-03-22T05:26:05.094Z,17.60
2023-03-22T05:30:29.098Z,17.60
2023-03-22T05:34:52.766Z,18.80
2023-03-22T05:39:16.527Z,9.40
2023-03-22T05:43:40.439Z,9.20
2023-03-22T05:48:04.396Z,7.50
2023-03-22T05:52:29.311Z,23.40
2023-03-22T05:56:55.329Z,14.70
2023-03-22T06:01:21.274Z,28.30
2023-03-22T06:05:46.414Z,42.00
2023-03-22T06:10:01.526Z,17.30
2023-03-22T06:14:34.128Z,14.80
2023-03-22T06:18:58.040Z,14.40
2023-03-22T06:23:22.024Z,16.20
2023-03-22T06:27:46.022Z,15.40
2023-03-22T06:32:09.908Z,11.90
2023-03-22T06:36:36.056Z,13.00
2023-03-22T06:41:00.866Z,11.60
2023-03-22T06:45:14.654Z,9.90
2023-03-22T06:49:38.586Z,9.30
2023-03-22T06:53:57.338Z,9.50
2023-03-22T06:58:21.143Z,7.20
2023-03-22T07:02:44.780Z,7.90
2023-03-22T07:07:14.661Z,8.10
2023-03-22T07:11:38.615Z,7.70
2023-03-22T07:16:05.735Z,7.00
2023-03-22T07:20:23.479Z,7.20
2023-03-22T07:24:56.702Z,7.60
2023-03-22T07:29:26.740Z,7.10
2023-03-22T07:33:54.226Z,8.70
2023-03-22T07:38:24.952Z,7.50
2023-03-22T07:42:49.209Z,7.60
2023-03-22T07:47:39.628Z,6.90
2023-03-22T07:52:10.320Z,7.20
2023-03-22T07:56:46.292Z,7.80
2023-03-22T08:01:12.188Z,7.70
2023-03-22T08:05:44.335Z,14.40
2023-03-22T08:10:07.705Z,9.80
2023-03-22T08:14:36.615Z,7.90
2023-03-22T08:19:01.169Z,7.80
2023-03-22T08:23:38.487Z,12.90
2023-03-22T08:28:12.654Z,6.70
2023-03-22T08:32:44.256Z,6.80
2023-03-22T08:37:08.308Z,6.80
2023-03-22T08:41:33.170Z,6.90
2023-03-22T08:45:58.600Z,7.10
2023-03-22T08:50:22.513Z,7.80
2023-03-22T08:54:50.536Z,8.60
2023-03-22T08:59:13.123Z,7.30
2023-03-22T09:03:27.099Z,7.70
2023-03-22T09:07:51.014Z,6.70
2023-03-22T09:12:03.489Z,6.30
2023-03-22T09:16:27.299Z,6.80
2023-03-22T09:20:51.282Z,6.70
2023-03-22T09:25:16.245Z,6.90
2023-03-22T09:29:42.271Z,8.70
2023-03-22T09:34:06.104Z,7.00
2023-03-22T09:38:17.536Z,12.20
2023-03-22T09:42:44.490Z,7.50
2023-03-22T09:47:12.088Z,7.20
2023-03-22T09:51:35.894Z,6.70
2023-03-22T09:56:00.792Z,6.60
2023-03-22T10:00:37.757Z,6.40
2023-03-22T10:05:23.254Z,5.70
2023-03-22T10:09:43.311Z,6.50
2023-03-22T10:14:15.057Z,5.90
2023-03-22T10:18:39.095Z,6.50
2023-03-22T10:23:02.942Z,7.30
2023-03-22T10:27:38.007Z,7.20
2023-03-22T10:32:01.647Z,6.60
2023-03-22T10:36:18.862Z,6.10
2023-03-22T10:40:34.895Z,7.00
2023-03-22T10:44:54.101Z,7.10
2023-03-22T10:49:33.135Z,6.10
2023-03-22T10:54:09.669Z,6.30
2023-03-22T10:58:32.896Z,5.90
2023-03-22T11:03:02.389Z,6.40
2023-03-22T11:07:28.365Z,6.00
2023-03-22T11:12:07.383Z,7.50
2023-03-22T11:16:39.743Z,5.80
2023-03-22T11:21:05.825Z,5.50
2023-03-22T11:25:30.947Z,5.30
2023-03-22T11:30:03.915Z,5.90
2023-03-22T11:34:41.668Z,6.60
2023-03-22T11:39:17.415Z,5.90
2023-03-22T11:43:58.764Z,5.30
2023-03-22T11:48:24.851Z,5.60
2023-03-22T11:56:56.921Z,5.10
2023-03-22T12:01:23.124Z,4.80
2023-03-22T12:05:47.149Z,6.10
2023-03-22T12:10:16.726Z,5.10
2023-03-22T12:14:40.811Z,5.00
2023-03-22T12:19:28.104Z,5.70
2023-03-22T12:24:04.724Z,5.80
2023-03-22T12:33:39.738Z,4.50
2023-03-22T12:38:09.462Z,4.70
2023-03-22T12:42:34.930Z,5.10
2023-03-22T12:47:02.575Z,5.10
2023-03-22T12:51:39.345Z,5.60
2023-03-22T12:56:15.877Z,8.60
2023-03-22T13:00:45.144Z,11.70
2023-03-22T13:05:31.414Z,7.40
2023-03-22T13:10:10.529Z,5.50
2023-03-22T13:14:38.382Z,4.70
2023-03-22T13:19:13.173Z,5.10
2023-03-22T13:23:38.138Z,5.10
2023-03-22T13:28:02.019Z,4.70
2023-03-22T13:32:22.066Z,6.40
2023-03-22T13:37:07.885Z,6.80
2023-03-22T13:41:35.528Z,4.50
2023-03-22T13:46:12.284Z,5.00
2023-03-22T13:50:48.918Z,11.70
2023-03-22T13:55:44.888Z,6.10
2023-03-22T14:00:15.118Z,3.50
2023-03-22T14:04:50.691Z,3.10
2023-03-22T14:09:17.345Z,2.90
2023-03-22T14:13:52.026Z,2.90
2023-03-22T14:18:36.980Z,2.90
